KBXA/BXA METAR and TAF weather

Enter ICAO airport designator
Station Type Date Time Source
KBXA METAR 2020/07/13 13:35 UTC NOAA

KBXA 131335Z AUTO 00000KT 7SM OVC009 28/25 A2993 RMK AO2 T02830252


Station Type Date Time Source
KBXA Decoded METAR 2020/07/13 13:35 UTC NOAA

Bogalusa, George R Carr Memorial Air Field, LA, United States (KBXA) 30-48-49N 089-51-53W
Jul 13, 2020 - 09:35 AM EDT / 2020.07.13 1335 UTC
Wind: Calm:0
Visibility: 7 mile(s):0
Sky conditions: overcast
Temperature: 82.9 F (28.3 C)
Dew Point: 77.4 F (25.2 C)
Relative Humidity: 83%
Pressure (altimeter): 29.93 in. Hg (1013 hPa)
ob: KBXA 131335Z AUTO 00000KT 7SM OVC009 28/25 A2993 RMK AO2 T02830252
cycle: 13

Station Type Date Time Source
KBXA TAF UTC NOAA

Error!

Example: see airport list